createdAt,value
2019-03-16T00:02:21.086Z,14.00
2019-03-16T00:04:49.515Z,14.00
2019-03-16T00:07:17.979Z,13.90
2019-03-16T00:09:46.407Z,14.00
2019-03-16T00:12:14.864Z,14.00
2019-03-16T00:14:43.302Z,13.90
2019-03-16T00:17:22.892Z,13.90
2019-03-16T00:19:41.919Z,14.00
2019-03-16T00:22:10.380Z,13.90
2019-03-16T00:24:38.814Z,13.90
2019-03-16T00:27:07.267Z,13.90
2019-03-16T00:29:35.703Z,13.90
2019-03-16T00:32:13.314Z,13.90
2019-03-16T00:34:34.359Z,13.90
2019-03-16T00:37:02.808Z,13.90
2019-03-16T00:39:31.288Z,13.80
2019-03-16T00:42:00.107Z,13.70
2019-03-16T00:44:28.624Z,13.70
2019-03-16T00:46:57.147Z,13.60
2019-03-16T00:49:25.654Z,13.60
2019-03-16T00:51:54.209Z,13.60
2019-03-16T00:54:22.729Z,13.60
2019-03-16T00:56:51.152Z,13.60
2019-03-16T00:59:19.761Z,13.60
2019-03-16T01:01:48.332Z,13.70
2019-03-16T01:04:16.915Z,13.70
2019-03-16T01:06:45.351Z,13.70
2019-03-16T01:09:13.831Z,13.70
2019-03-16T01:11:42.271Z,13.70
2019-03-16T01:14:10.729Z,13.80
2019-03-16T01:16:39.248Z,13.80
2019-03-16T01:19:07.779Z,13.80
2019-03-16T01:21:36.436Z,13.80
2019-03-16T01:24:04.986Z,13.80
2019-03-16T01:26:33.424Z,13.80
2019-03-16T01:29:01.887Z,13.80
2019-03-16T01:31:30.319Z,13.70
2019-03-16T01:33:58.769Z,13.70
2019-03-16T01:36:27.196Z,13.70
2019-03-16T01:38:55.656Z,13.70
2019-03-16T01:41:24.242Z,13.70
2019-03-16T01:43:52.704Z,13.70
2019-03-16T01:46:21.138Z,13.70
2019-03-16T01:48:49.665Z,13.70
2019-03-16T01:51:18.100Z,13.60
2019-03-16T01:53:46.561Z,13.60
2019-03-16T01:56:15.000Z,13.60
2019-03-16T01:58:43.455Z,13.60
2019-03-16T02:01:11.965Z,13.50
2019-03-16T02:03:40.391Z,13.50
2019-03-16T02:06:08.856Z,13.50
2019-03-16T02:08:37.288Z,13.50
2019-03-16T02:11:05.756Z,13.50
2019-03-16T02:13:34.195Z,13.50
2019-03-16T02:16:10.836Z,13.50
2019-03-16T02:18:32.838Z,13.50
2019-03-16T02:21:01.369Z,13.50
2019-03-16T02:23:29.829Z,13.50
2019-03-16T02:25:58.335Z,13.40
2019-03-16T02:28:26.792Z,13.50
2019-03-16T02:30:55.316Z,13.50
2019-03-16T02:33:23.759Z,13.50
2019-03-16T02:35:52.243Z,13.50
2019-03-16T02:38:20.693Z,13.50
2019-03-16T02:40:49.175Z,13.60
2019-03-16T02:43:17.603Z,13.60
2019-03-16T02:45:46.157Z,13.60
2019-03-16T02:48:14.676Z,13.60
2019-03-16T02:50:43.206Z,13.60
2019-03-16T02:53:11.649Z,13.50
2019-03-16T02:55:40.110Z,13.50
2019-03-16T02:58:08.609Z,13.60
2019-03-16T03:00:37.063Z,13.60
2019-03-16T03:03:05.572Z,13.60
2019-03-16T03:05:34.047Z,13.50
2019-03-16T03:08:02.480Z,13.40
2019-03-16T03:10:30.936Z,13.40
2019-03-16T03:12:59.387Z,13.40
2019-03-16T03:15:27.852Z,13.30
2019-03-16T03:17:56.306Z,13.30
2019-03-16T03:20:24.772Z,13.30
2019-03-16T03:22:53.273Z,13.40
2019-03-16T03:25:21.783Z,13.40
2019-03-16T03:27:50.215Z,13.40
2019-03-16T03:30:18.723Z,13.50
2019-03-16T03:32:47.182Z,13.50
2019-03-16T03:35:15.709Z,13.60
2019-03-16T03:37:44.221Z,13.70
2019-03-16T03:40:13.106Z,13.70
2019-03-16T03:42:41.683Z,13.60
2019-03-16T03:45:11.761Z,13.60
2019-03-16T03:47:40.220Z,13.60
2019-03-16T03:50:12.978Z,13.60
2019-03-16T03:52:41.443Z,13.50
2019-03-16T03:55:11.647Z,13.50
2019-03-16T03:57:40.245Z,13.60
2019-03-16T04:00:14.562Z,13.50
2019-03-16T04:02:43.075Z,13.60
2019-03-16T04:05:12.129Z,13.50
2019-03-16T04:07:40.601Z,13.50
2019-03-16T04:10:10.338Z,13.50
2019-03-16T04:12:38.993Z,13.50
2019-03-16T04:15:09.646Z,13.60
2019-03-16T04:17:38.105Z,13.50
2019-03-16T04:20:12.084Z,13.60
2019-03-16T04:22:40.607Z,13.50
2019-03-16T04:25:09.483Z,13.60
2019-03-16T04:27:38.293Z,13.70
2019-03-16T04:30:08.691Z,13.70
2019-03-16T04:32:37.167Z,13.70
2019-03-16T04:35:06.154Z,13.70
2019-03-16T04:37:34.639Z,13.70
2019-03-16T04:40:03.448Z,13.80
2019-03-16T04:42:32.275Z,13.80
2019-03-16T04:45:00.729Z,13.80
2019-03-16T04:47:29.213Z,13.70
2019-03-16T04:49:57.717Z,13.80
2019-03-16T04:52:26.197Z,13.80
2019-03-16T04:54:54.641Z,13.80
2019-03-16T04:57:23.110Z,13.70
2019-03-16T04:59:51.615Z,13.60
2019-03-16T05:02:21.270Z,13.60
2019-03-16T05:04:49.692Z,13.60
2019-03-16T05:07:18.224Z,13.70
2019-03-16T05:09:46.697Z,13.70
2019-03-16T05:12:15.148Z,13.80
2019-03-16T05:14:43.681Z,13.90
2019-03-16T05:17:12.167Z,13.90
2019-03-16T05:19:40.663Z,13.90
2019-03-16T05:22:09.131Z,13.90
2019-03-16T05:24:37.719Z,13.90
2019-03-16T05:27:06.165Z,13.80
2019-03-16T05:29:34.627Z,13.80
2019-03-16T05:32:03.139Z,13.80
2019-03-16T05:34:31.629Z,13.80
2019-03-16T05:37:00.072Z,13.80
2019-03-16T05:39:28.600Z,13.90
2019-03-16T05:41:57.174Z,13.90
2019-03-16T05:44:25.836Z,13.80
2019-03-16T05:46:54.745Z,13.70
2019-03-16T05:49:23.259Z,13.60
2019-03-16T05:51:51.779Z,13.50
2019-03-16T05:54:20.399Z,13.40
2019-03-16T05:56:48.906Z,13.40
2019-03-16T05:59:17.528Z,13.40
2019-03-16T06:01:46.132Z,13.40
2019-03-16T06:04:14.581Z,13.40
2019-03-16T06:06:43.023Z,13.40
2019-03-16T06:09:11.598Z,13.40
2019-03-16T06:11:40.075Z,13.50
2019-03-16T06:14:08.527Z,13.40
2019-03-16T06:16:37.083Z,13.40
2019-03-16T06:19:05.583Z,13.40
2019-03-16T06:21:34.041Z,13.50
2019-03-16T06:24:02.525Z,13.60
2019-03-16T06:26:31.075Z,13.60
2019-03-16T06:28:59.541Z,13.60
2019-03-16T06:31:28.065Z,13.60
2019-03-16T06:33:56.601Z,13.60
2019-03-16T06:36:25.036Z,13.60
2019-03-16T06:38:53.509Z,13.60
2019-03-16T06:41:21.947Z,13.50
2019-03-16T06:43:50.479Z,13.40
2019-03-16T06:46:18.910Z,13.40
2019-03-16T06:48:47.425Z,13.40
2019-03-16T06:51:15.862Z,13.30
2019-03-16T06:53:44.316Z,13.30
2019-03-16T06:56:12.810Z,13.20
2019-03-16T06:58:41.258Z,13.10
2019-03-16T07:01:09.727Z,13.00
2019-03-16T07:03:38.165Z,12.90
2019-03-16T07:06:06.722Z,12.90
2019-03-16T07:08:35.243Z,13.00
2019-03-16T07:11:03.786Z,13.10
2019-03-16T07:13:32.247Z,13.10
2019-03-16T07:16:00.752Z,13.20
2019-03-16T07:18:29.215Z,13.40
2019-03-16T07:20:57.753Z,13.40
2019-03-16T07:23:26.362Z,13.40
2019-03-16T07:25:54.902Z,13.40
2019-03-16T07:28:23.341Z,13.30
2019-03-16T07:30:51.825Z,13.30
2019-03-16T07:33:20.319Z,13.40
2019-03-16T07:35:48.776Z,13.40
2019-03-16T07:38:17.215Z,13.40
2019-03-16T07:40:45.744Z,13.30
2019-03-16T07:43:14.271Z,13.30
2019-03-16T07:45:42.822Z,13.30
2019-03-16T07:48:11.396Z,13.40
2019-03-16T07:50:39.862Z,13.30
2019-03-16T07:53:08.410Z,13.30
2019-03-16T07:55:36.995Z,13.30
2019-03-16T07:58:05.451Z,13.20
2019-03-16T08:00:33.908Z,13.30
2019-03-16T08:03:02.378Z,13.30
2019-03-16T08:05:31.003Z,13.30
2019-03-16T08:07:59.482Z,13.30
2019-03-16T08:10:27.961Z,13.30
2019-03-16T08:12:56.483Z,13.40
2019-03-16T08:15:27.937Z,13.50
2019-03-16T08:17:55.192Z,13.60
2019-03-16T08:20:23.659Z,13.40
2019-03-16T08:22:52.094Z,13.70
2019-03-16T08:25:20.571Z,13.80
2019-03-16T08:27:54.164Z,13.80
2019-03-16T08:30:19.524Z,13.80
2019-03-16T08:32:49.171Z,13.80
2019-03-16T08:35:17.804Z,13.80
2019-03-16T08:37:46.272Z,13.90
2019-03-16T08:40:14.737Z,13.90
2019-03-16T08:42:43.536Z,13.90
2019-03-16T08:45:12.202Z,13.90
2019-03-16T08:47:40.723Z,13.90
2019-03-16T08:50:10.695Z,13.80
2019-03-16T08:52:39.220Z,13.80
2019-03-16T08:55:08.606Z,13.70
2019-03-16T08:57:37.115Z,13.70
2019-03-16T09:00:11.079Z,13.60
2019-03-16T09:02:39.527Z,13.70
2019-03-16T09:05:08.534Z,13.60
2019-03-16T09:07:36.990Z,13.60
2019-03-16T09:10:09.466Z,13.60
2019-03-16T09:12:38.088Z,13.50
2019-03-16T09:15:11.815Z,13.60
2019-03-16T09:17:40.271Z,13.60
2019-03-16T09:20:09.655Z,13.70
2019-03-16T09:22:38.142Z,13.60
2019-03-16T09:25:08.836Z,13.60
2019-03-16T09:27:37.379Z,13.50
2019-03-16T09:30:17.106Z,13.50
2019-03-16T09:32:45.907Z,13.60
2019-03-16T09:35:14.532Z,13.60
2019-03-16T09:37:43.016Z,13.70
2019-03-16T09:40:11.919Z,13.80
2019-03-16T09:42:40.793Z,13.80
2019-03-16T09:45:11.087Z,13.90
2019-03-16T09:47:39.612Z,13.80
2019-03-16T09:50:09.495Z,13.90
2019-03-16T09:52:37.965Z,13.80
2019-03-16T09:55:11.032Z,14.00
2019-03-16T09:57:39.488Z,13.90
2019-03-16T10:00:17.281Z,13.90
2019-03-16T10:02:45.762Z,13.90
2019-03-16T10:05:14.307Z,13.80
2019-03-16T10:07:42.778Z,13.80
2019-03-16T10:10:12.641Z,13.70
2019-03-16T10:12:41.091Z,13.70
2019-03-16T10:15:30.395Z,13.80
2019-03-16T10:17:58.855Z,13.70
2019-03-16T10:20:27.487Z,13.80
2019-03-16T10:22:55.944Z,13.80
2019-03-16T10:25:24.461Z,13.80
2019-03-16T10:27:53.049Z,13.80
2019-03-16T10:30:21.530Z,13.80
2019-03-16T10:32:49.995Z,13.90
2019-03-16T10:35:18.756Z,13.90
2019-03-16T10:37:47.409Z,13.90
2019-03-16T10:40:15.942Z,13.90
2019-03-16T10:42:44.385Z,13.90
2019-03-16T10:45:12.903Z,13.80
2019-03-16T10:47:41.344Z,13.90
2019-03-16T10:50:12.450Z,13.90
2019-03-16T10:52:40.884Z,13.90
2019-03-16T10:55:09.481Z,13.90
2019-03-16T10:57:38.053Z,13.90
2019-03-16T11:00:11.420Z,13.90
2019-03-16T11:02:39.866Z,13.90
2019-03-16T11:05:08.475Z,13.90
2019-03-16T11:07:36.917Z,13.90
2019-03-16T11:10:08.435Z,13.80
2019-03-16T11:12:36.933Z,13.70
2019-03-16T11:15:08.356Z,13.50
2019-03-16T11:17:36.868Z,13.40
2019-03-16T11:20:10.589Z,13.30
2019-03-16T11:22:39.020Z,13.40
2019-03-16T11:25:08.121Z,13.40
2019-03-16T11:27:36.623Z,13.30
2019-03-16T11:30:14.124Z,13.20
2019-03-16T11:32:42.651Z,13.20
2019-03-16T11:35:12.047Z,13.20
2019-03-16T11:37:40.626Z,13.20
2019-03-16T11:40:14.778Z,13.20
2019-03-16T11:42:43.222Z,13.30
2019-03-16T11:45:12.243Z,13.40
2019-03-16T11:47:40.744Z,13.70
2019-03-16T11:50:10.440Z,13.90
2019-03-16T11:52:39.024Z,13.90
2019-03-16T11:55:09.810Z,14.00
2019-03-16T11:57:38.247Z,14.00
2019-03-16T12:00:09.760Z,14.00
2019-03-16T12:02:38.343Z,14.00
2019-03-16T12:05:10.252Z,14.10
2019-03-16T12:07:38.997Z,14.10
2019-03-16T12:10:10.719Z,14.10
2019-03-16T12:12:39.171Z,14.00
2019-03-16T12:15:11.872Z,14.00
2019-03-16T12:17:40.362Z,14.00
2019-03-16T12:20:18.126Z,14.00
2019-03-16T12:22:46.159Z,13.90
2019-03-16T12:25:14.791Z,13.90
2019-03-16T12:27:43.247Z,13.90
2019-03-16T12:30:13.733Z,13.90
2019-03-16T12:32:42.195Z,13.90
2019-03-16T12:35:10.929Z,13.90
2019-03-16T12:37:39.401Z,13.90
2019-03-16T12:40:12.570Z,13.90
2019-03-16T12:42:41.102Z,13.90
2019-03-16T12:45:16.765Z,13.90
2019-03-16T12:47:45.335Z,13.90
2019-03-16T12:50:14.334Z,13.80
2019-03-16T12:52:42.997Z,13.70
2019-03-16T12:55:12.379Z,13.70
2019-03-16T12:57:41.009Z,13.70
2019-03-16T13:00:17.239Z,13.50
2019-03-16T13:02:45.775Z,13.40
2019-03-16T13:05:14.423Z,13.40
2019-03-16T13:07:42.891Z,13.30
2019-03-16T13:10:13.944Z,13.20
2019-03-16T13:12:42.627Z,13.10
2019-03-16T13:15:11.181Z,13.10
2019-03-16T13:17:40.016Z,13.00
2019-03-16T13:20:13.696Z,12.90
2019-03-16T13:22:42.167Z,12.80
2019-03-16T13:25:11.520Z,12.80
2019-03-16T13:27:40.139Z,12.90
2019-03-16T13:30:15.559Z,12.90
2019-03-16T13:32:44.295Z,13.00
2019-03-16T13:35:13.020Z,13.00
2019-03-16T13:37:41.587Z,13.10
2019-03-16T13:40:15.803Z,13.00
2019-03-16T13:42:44.299Z,13.00
2019-03-16T13:45:12.898Z,13.00
2019-03-16T13:47:41.510Z,13.10
2019-03-16T13:50:17.511Z,13.20
2019-03-16T13:52:46.227Z,13.30
2019-03-16T13:55:14.764Z,13.40
2019-03-16T13:57:43.310Z,13.40
2019-03-16T14:00:15.343Z,13.50
2019-03-16T14:02:43.860Z,13.50
2019-03-16T14:05:12.472Z,13.60
2019-03-16T14:07:41.287Z,13.70
2019-03-16T14:10:24.874Z,13.70
2019-03-16T14:12:53.388Z,13.70
2019-03-16T14:15:21.863Z,13.70
2019-03-16T14:17:50.380Z,13.70
2019-03-16T14:20:19.341Z,13.60
2019-03-16T14:22:48.139Z,13.60
2019-03-16T14:25:16.619Z,13.60
2019-03-16T14:27:45.071Z,13.70
2019-03-16T14:30:29.508Z,13.60
2019-03-16T14:32:48.003Z,13.70
2019-03-16T14:35:16.700Z,13.70
2019-03-16T14:37:45.200Z,13.50
2019-03-16T14:40:14.888Z,13.40
2019-03-16T14:42:43.569Z,13.30
2019-03-16T14:45:14.097Z,13.30
2019-03-16T14:47:42.612Z,13.20
2019-03-16T14:50:19.515Z,13.30
2019-03-16T14:52:47.958Z,13.20
2019-03-16T14:55:16.612Z,13.30
2019-03-16T14:57:45.128Z,13.30
2019-03-16T15:00:17.601Z,13.50
2019-03-16T15:02:46.838Z,13.60
2019-03-16T15:05:15.596Z,13.80
2019-03-16T15:07:44.069Z,13.90
2019-03-16T15:10:14.811Z,14.00
2019-03-16T15:12:43.306Z,13.90
2019-03-16T15:15:19.736Z,14.00
2019-03-16T15:17:48.183Z,14.10
2019-03-16T15:20:17.065Z,14.10
2019-03-16T15:22:45.889Z,14.10
2019-03-16T15:25:14.900Z,14.10
2019-03-16T15:27:43.425Z,14.10
2019-03-16T15:30:16.583Z,14.10
2019-03-16T15:32:45.296Z,14.00
2019-03-16T15:35:13.731Z,14.00
2019-03-16T15:37:42.544Z,14.00
2019-03-16T15:40:12.497Z,13.90
2019-03-16T15:42:41.033Z,14.00
2019-03-16T15:45:18.009Z,13.90
2019-03-16T15:47:46.493Z,13.90
2019-03-16T15:50:14.928Z,13.80
2019-03-16T15:52:43.561Z,13.70
2019-03-16T15:55:12.109Z,13.60
2019-03-16T15:57:42.596Z,13.60
2019-03-16T16:00:15.837Z,13.60
2019-03-16T16:02:44.307Z,13.60
2019-03-16T16:05:12.860Z,13.50
2019-03-16T16:07:41.404Z,13.50
2019-03-16T16:10:15.743Z,13.40
2019-03-16T16:12:44.382Z,13.40
2019-03-16T16:15:13.307Z,13.40
2019-03-16T16:17:41.752Z,13.50
2019-03-16T16:20:14.515Z,13.50
2019-03-16T16:22:43.062Z,13.40
2019-03-16T16:25:12.695Z,13.40
2019-03-16T16:27:41.140Z,13.40
2019-03-16T16:30:20.024Z,13.40
2019-03-16T16:32:48.650Z,13.50
2019-03-16T16:35:17.496Z,13.50
2019-03-16T16:37:46.032Z,13.50
2019-03-16T16:40:19.046Z,13.60
2019-03-16T16:42:47.623Z,13.60
2019-03-16T16:45:17.123Z,13.60
2019-03-16T16:47:45.639Z,13.60
2019-03-16T16:50:18.985Z,13.70
2019-03-16T16:52:47.519Z,13.70
2019-03-16T16:55:16.056Z,13.70
2019-03-16T16:57:44.506Z,13.80
2019-03-16T17:00:27.916Z,13.90
2019-03-16T17:02:56.362Z,13.90
2019-03-16T17:05:25.055Z,14.00
2019-03-16T17:07:53.516Z,14.10
2019-03-16T17:10:22.112Z,14.10
2019-03-16T17:12:50.641Z,14.10
2019-03-16T17:15:20.460Z,14.10
2019-03-16T17:17:49.056Z,14.10
2019-03-16T17:20:17.581Z,14.20
2019-03-16T17:22:46.091Z,14.20
2019-03-16T17:25:15.610Z,14.20
2019-03-16T17:27:44.060Z,14.20
2019-03-16T17:30:30.597Z,14.20
2019-03-16T17:32:59.055Z,14.20
2019-03-16T17:35:27.515Z,14.10
2019-03-16T17:37:55.958Z,14.00
2019-03-16T17:40:24.490Z,14.10
2019-03-16T17:42:52.986Z,14.10
2019-03-16T17:45:21.796Z,14.10
2019-03-16T17:47:50.241Z,14.10
2019-03-16T17:50:19.708Z,14.10
2019-03-16T17:52:48.138Z,14.00
2019-03-16T17:55:17.983Z,14.00
2019-03-16T17:57:46.652Z,14.00
2019-03-16T18:00:19.859Z,14.00
2019-03-16T18:02:52.540Z,13.90
2019-03-16T18:05:18.618Z,13.80
2019-03-16T18:07:47.076Z,13.90
2019-03-16T18:10:15.962Z,13.80
2019-03-16T18:12:44.867Z,13.80
2019-03-16T18:15:15.016Z,13.70
2019-03-16T18:17:43.479Z,13.70
2019-03-16T18:20:17.690Z,13.70
2019-03-16T18:22:47.321Z,13.70
2019-03-16T18:25:16.423Z,13.80
2019-03-16T18:27:44.996Z,13.70
2019-03-16T18:30:19.403Z,13.70
2019-03-16T18:32:47.943Z,13.60
2019-03-16T18:35:16.523Z,13.70
2019-03-16T18:37:45.005Z,13.70
2019-03-16T18:40:14.552Z,13.70
2019-03-16T18:42:43.097Z,13.80
2019-03-16T18:45:19.436Z,13.80
2019-03-16T18:47:47.893Z,13.90
2019-03-16T18:50:16.364Z,13.90
2019-03-16T18:52:44.909Z,13.90
2019-03-16T18:55:13.761Z,13.80
2019-03-16T18:57:42.218Z,13.90
2019-03-16T19:00:18.992Z,13.90
2019-03-16T19:02:47.506Z,13.80
2019-03-16T19:05:16.021Z,13.80
2019-03-16T19:07:44.485Z,13.80
2019-03-16T19:10:16.827Z,13.70
2019-03-16T19:12:45.817Z,13.70
2019-03-16T19:15:18.259Z,13.70
2019-03-16T19:17:58.080Z,13.70
2019-03-16T19:20:17.524Z,13.60
2019-03-16T19:22:46.142Z,13.70
2019-03-16T19:25:16.793Z,13.70
2019-03-16T19:27:45.277Z,13.60
2019-03-16T19:30:15.859Z,13.60
2019-03-16T19:32:44.569Z,13.60
2019-03-16T19:35:13.400Z,13.60
2019-03-16T19:37:41.929Z,13.60
2019-03-16T19:40:15.730Z,13.70
2019-03-16T19:42:46.479Z,13.70
2019-03-16T19:45:14.626Z,13.70
2019-03-16T19:47:43.076Z,13.70
2019-03-16T19:50:13.382Z,13.70
2019-03-16T19:52:41.819Z,13.80
2019-03-16T19:55:11.532Z,13.80
2019-03-16T19:57:40.043Z,13.80
2019-03-16T20:00:15.898Z,13.80
2019-03-16T20:02:50.091Z,13.70
2019-03-16T20:05:14.616Z,13.70
2019-03-16T20:07:43.414Z,13.60
2019-03-16T20:10:19.588Z,13.60
2019-03-16T20:12:48.153Z,13.60
2019-03-16T20:15:17.056Z,13.60
2019-03-16T20:17:45.802Z,13.60
2019-03-16T20:20:20.250Z,13.70
2019-03-16T20:22:48.768Z,13.70
2019-03-16T20:25:17.341Z,13.70
2019-03-16T20:27:45.810Z,13.70
2019-03-16T20:30:15.700Z,13.80
2019-03-16T20:32:44.170Z,13.70
2019-03-16T20:35:12.850Z,13.70
2019-03-16T20:37:41.352Z,13.60
2019-03-16T20:40:14.699Z,13.50
2019-03-16T20:42:43.233Z,13.50
2019-03-16T20:45:12.378Z,13.40
2019-03-16T20:47:41.073Z,13.40
2019-03-16T20:50:16.905Z,13.40
2019-03-16T20:52:45.375Z,13.40
2019-03-16T20:55:14.110Z,13.30
2019-03-16T20:57:42.695Z,13.40
2019-03-16T21:00:21.260Z,13.40
2019-03-16T21:02:49.904Z,13.50
2019-03-16T21:05:18.395Z,13.40
2019-03-16T21:07:47.395Z,13.30
2019-03-16T21:10:15.911Z,13.10
2019-03-16T21:12:44.710Z,13.10
2019-03-16T21:15:14.683Z,13.00
2019-03-16T21:17:43.151Z,13.00
2019-03-16T21:20:14.272Z,12.90
2019-03-16T21:22:42.868Z,12.90
2019-03-16T21:25:15.639Z,12.80
2019-03-16T21:27:44.539Z,12.80
2019-03-16T21:30:16.177Z,12.70
2019-03-16T21:32:44.666Z,12.70
2019-03-16T21:35:13.217Z,12.80
2019-03-16T21:37:41.755Z,12.70
2019-03-16T21:40:12.887Z,12.70
2019-03-16T21:42:41.318Z,12.70
2019-03-16T21:45:11.219Z,12.70
2019-03-16T21:47:39.667Z,12.60
2019-03-16T21:50:11.315Z,12.70
2019-03-16T21:52:44.286Z,12.80
2019-03-16T21:55:12.265Z,12.70
2019-03-16T21:57:40.699Z,12.60
2019-03-16T22:00:16.964Z,12.70
2019-03-16T22:02:45.451Z,12.70
2019-03-16T22:05:14.075Z,12.70
2019-03-16T22:07:42.514Z,12.70
2019-03-16T22:10:14.087Z,12.70
2019-03-16T22:12:42.706Z,12.70
2019-03-16T22:15:15.260Z,12.70
2019-03-16T22:17:43.928Z,12.70
2019-03-16T22:20:14.991Z,12.70
2019-03-16T22:22:43.519Z,12.70
2019-03-16T22:25:12.048Z,12.70
2019-03-16T22:27:40.549Z,12.70
2019-03-16T22:30:11.745Z,12.70
2019-03-16T22:32:40.192Z,12.70
2019-03-16T22:35:09.408Z,12.80
2019-03-16T22:37:38.189Z,12.80
2019-03-16T22:40:09.915Z,12.80
2019-03-16T22:42:38.352Z,12.80
2019-03-16T22:45:09.507Z,12.80
2019-03-16T22:47:37.945Z,12.70
2019-03-16T22:50:09.619Z,12.70
2019-03-16T22:52:38.055Z,12.80
2019-03-16T22:55:06.726Z,12.80
2019-03-16T22:57:35.253Z,12.80
2019-03-16T23:00:05.400Z,12.80
2019-03-16T23:02:34.135Z,12.80
2019-03-16T23:05:02.635Z,12.70
2019-03-16T23:07:34.149Z,12.80
2019-03-16T23:10:02.651Z,12.70
2019-03-16T23:12:31.144Z,12.70
2019-03-16T23:14:59.676Z,12.60
2019-03-16T23:17:28.204Z,12.70
2019-03-16T23:19:56.660Z,12.70
2019-03-16T23:22:25.203Z,12.70
2019-03-16T23:24:53.644Z,12.70
2019-03-16T23:27:22.117Z,12.70
2019-03-16T23:29:50.540Z,12.80
2019-03-16T23:32:19.024Z,12.70
2019-03-16T23:34:47.448Z,12.80
2019-03-16T23:37:15.911Z,12.90
2019-03-16T23:39:44.348Z,12.80
2019-03-16T23:42:12.820Z,12.80
2019-03-16T23:44:41.264Z,12.80
2019-03-16T23:47:09.781Z,12.90
2019-03-16T23:49:38.315Z,12.90
2019-03-16T23:52:06.835Z,12.90
2019-03-16T23:54:35.272Z,12.90
2019-03-16T23:57:03.704Z,13.00
2019-03-16T23:59:32.167Z,12.90
